createdAt,value
2018-12-13T00:00:24.088Z,3.75
2018-12-13T00:02:54.842Z,3.75
2018-12-13T00:05:25.758Z,3.73
2018-12-13T00:07:54.772Z,3.71
2018-12-13T00:10:23.563Z,3.67
2018-12-13T00:12:54.502Z,3.63
2018-12-13T00:15:26.439Z,3.58
2018-12-13T00:17:55.227Z,3.55
2018-12-13T00:20:24.059Z,3.50
2018-12-13T00:22:52.913Z,3.50
2018-12-13T00:25:22.010Z,3.46
2018-12-13T00:27:50.888Z,3.42
2018-12-13T00:30:19.750Z,3.40
2018-12-13T00:32:48.556Z,3.39
2018-12-13T00:35:17.507Z,3.35
2018-12-13T00:37:46.284Z,3.34
2018-12-13T00:40:15.183Z,3.33
2018-12-13T00:42:43.960Z,3.31
2018-12-13T00:45:12.952Z,3.30
2018-12-13T00:47:41.734Z,3.29
2018-12-13T00:50:10.926Z,3.31
2018-12-13T00:52:39.769Z,3.30
2018-12-13T00:55:08.664Z,3.31
2018-12-13T00:57:37.468Z,3.32
2018-12-13T01:00:07.874Z,3.32
2018-12-13T01:02:36.958Z,3.34
2018-12-13T01:05:05.964Z,3.35
2018-12-13T01:07:35.010Z,3.38
2018-12-13T01:10:04.414Z,3.38
2018-12-13T01:12:34.250Z,3.38
2018-12-13T01:15:03.222Z,3.38
2018-12-13T01:17:33.804Z,3.37
2018-12-13T01:20:05.840Z,3.36
2018-12-13T01:22:34.693Z,3.34
2018-12-13T01:25:03.623Z,3.35
2018-12-13T01:27:32.412Z,3.33
2018-12-13T01:30:01.415Z,3.32
2018-12-13T01:32:30.348Z,3.32
2018-12-13T01:34:59.070Z,3.34
2018-12-13T01:37:27.790Z,3.34
2018-12-13T01:39:56.616Z,3.33
2018-12-13T01:42:25.435Z,3.34
2018-12-13T01:44:54.171Z,3.34
2018-12-13T01:47:22.906Z,3.32
2018-12-13T01:49:51.932Z,3.28
2018-12-13T01:52:20.664Z,3.26
2018-12-13T01:54:49.393Z,3.25
2018-12-13T01:57:18.168Z,3.23
2018-12-13T01:59:46.986Z,3.18
2018-12-13T02:02:15.726Z,3.16
2018-12-13T02:04:44.687Z,3.14
2018-12-13T02:07:13.522Z,3.10
2018-12-13T02:09:42.512Z,3.06
2018-12-13T02:12:11.762Z,3.05
2018-12-13T02:14:40.535Z,3.01
2018-12-13T02:17:11.467Z,2.99
2018-12-13T02:19:40.286Z,2.98
2018-12-13T02:22:09.315Z,2.95
2018-12-13T02:24:38.742Z,2.91
2018-12-13T02:27:07.596Z,2.91
2018-12-13T02:29:36.432Z,2.90
2018-12-13T02:32:05.521Z,2.87
2018-12-13T02:34:34.356Z,2.85
2018-12-13T02:37:06.181Z,2.83
2018-12-13T02:39:34.147Z,2.79
2018-12-13T02:42:02.955Z,2.76
2018-12-13T02:44:31.671Z,2.71
2018-12-13T02:47:00.400Z,2.68
2018-12-13T02:49:29.550Z,2.66
2018-12-13T02:51:58.431Z,2.64
2018-12-13T02:54:27.171Z,2.61
2018-12-13T02:56:55.939Z,2.59
2018-12-13T02:59:31.402Z,2.57
2018-12-13T03:02:01.031Z,2.53
2018-12-13T03:04:30.940Z,2.51
2018-12-13T03:06:59.935Z,2.52
2018-12-13T03:09:29.019Z,2.54
2018-12-13T03:11:57.832Z,2.55
2018-12-13T03:14:26.545Z,2.54
2018-12-13T03:16:55.678Z,2.51
2018-12-13T03:21:58.562Z,2.51
2018-12-13T03:24:27.450Z,2.48
2018-12-13T03:26:56.344Z,2.47
2018-12-13T03:29:25.096Z,2.41
2018-12-13T03:31:54.449Z,2.41
2018-12-13T03:34:23.245Z,2.37
2018-12-13T03:36:52.035Z,2.35
2018-12-13T03:39:21.092Z,2.35
2018-12-13T03:41:50.055Z,2.33
2018-12-13T03:44:18.847Z,2.30
2018-12-13T03:46:47.796Z,2.33
2018-12-13T03:49:16.732Z,2.33
2018-12-13T03:51:45.451Z,2.37
2018-12-13T03:54:14.335Z,2.36
2018-12-13T03:56:43.387Z,2.39
2018-12-13T03:59:12.181Z,2.41
2018-12-13T04:01:41.290Z,2.40
2018-12-13T04:04:10.102Z,2.37
2018-12-13T04:06:38.931Z,2.33
2018-12-13T04:09:07.983Z,2.33
2018-12-13T04:11:36.890Z,2.33
2018-12-13T04:14:05.805Z,2.37
2018-12-13T04:16:34.584Z,2.39
2018-12-13T04:19:03.444Z,2.41
2018-12-13T04:21:32.179Z,2.41
2018-12-13T04:24:01.051Z,2.41
2018-12-13T04:26:29.982Z,2.37
2018-12-13T04:28:58.715Z,2.35
2018-12-13T04:31:27.883Z,2.36
2018-12-13T04:33:56.574Z,2.35
2018-12-13T04:36:25.459Z,2.34
2018-12-13T04:38:54.344Z,2.34
2018-12-13T04:41:23.146Z,2.34
2018-12-13T04:43:51.954Z,2.32
2018-12-13T04:46:20.826Z,2.33
2018-12-13T04:48:49.612Z,2.31
2018-12-13T04:51:18.436Z,2.26
2018-12-13T04:54:05.928Z,2.28
2018-12-13T04:56:34.660Z,2.27
2018-12-13T04:59:04.489Z,2.29
2018-12-13T05:01:33.234Z,2.30
2018-12-13T05:04:03.213Z,2.27
2018-12-13T05:06:31.943Z,2.27
2018-12-13T05:09:01.835Z,2.26
2018-12-13T05:11:32.500Z,2.30
2018-12-13T05:14:01.418Z,2.30
2018-12-13T05:16:30.225Z,2.30
2018-12-13T05:18:59.086Z,2.31
2018-12-13T05:21:28.179Z,2.32
2018-12-13T05:23:57.096Z,2.31
2018-12-13T05:26:25.897Z,2.33
2018-12-13T05:28:54.631Z,2.34
2018-12-13T05:31:23.512Z,2.33
2018-12-13T05:33:52.335Z,2.32
2018-12-13T05:36:22.126Z,2.31
2018-12-13T05:38:51.154Z,2.27
2018-12-13T05:41:20.141Z,2.27
2018-12-13T05:43:53.072Z,2.26
2018-12-13T05:46:22.404Z,2.23
2018-12-13T05:48:51.303Z,2.22
2018-12-13T05:51:20.110Z,2.24
2018-12-13T05:53:49.070Z,2.21
2018-12-13T05:56:17.891Z,2.17
2018-12-13T05:58:46.684Z,2.15
2018-12-13T06:01:15.477Z,2.16
2018-12-13T06:03:44.416Z,2.14
2018-12-13T06:06:13.616Z,2.15
2018-12-13T06:08:42.337Z,2.13
2018-12-13T06:11:11.132Z,2.11
2018-12-13T06:13:39.987Z,2.07
2018-12-13T06:16:09.139Z,2.04
2018-12-13T06:18:37.968Z,2.03
2018-12-13T06:21:11.854Z,2.02
2018-12-13T06:23:37.740Z,2.02
2018-12-13T06:26:06.479Z,1.99
2018-12-13T06:28:35.278Z,1.96
2018-12-13T06:31:04.907Z,1.96
2018-12-13T06:33:33.649Z,1.93
2018-12-13T06:36:02.461Z,1.89
2018-12-13T06:38:31.255Z,1.85
2018-12-13T06:41:00.005Z,1.78
2018-12-13T06:43:28.722Z,1.77
2018-12-13T06:45:57.524Z,1.79
2018-12-13T06:48:26.307Z,1.79
2018-12-13T06:50:55.186Z,1.77
2018-12-13T06:53:23.991Z,1.73
2018-12-13T06:55:52.878Z,1.70
2018-12-13T06:58:21.685Z,1.70
2018-12-13T07:00:50.502Z,1.69
2018-12-13T07:03:19.527Z,1.66
2018-12-13T07:05:48.258Z,1.64
2018-12-13T07:08:17.203Z,1.64
2018-12-13T07:10:46.119Z,1.62
2018-12-13T07:13:15.119Z,1.60
2018-12-13T07:15:43.843Z,1.58
2018-12-13T07:18:12.643Z,1.55
2018-12-13T07:20:41.375Z,1.49
2018-12-13T07:23:10.143Z,1.47
2018-12-13T07:25:38.917Z,1.41
2018-12-13T07:28:07.769Z,1.39
2018-12-13T07:30:36.595Z,1.38
2018-12-13T07:33:05.732Z,1.36
2018-12-13T07:35:34.530Z,1.37
2018-12-13T07:38:03.728Z,1.39
2018-12-13T07:40:32.495Z,1.38
2018-12-13T07:43:01.788Z,1.39
2018-12-13T07:45:30.665Z,1.37
2018-12-13T07:47:59.840Z,1.37
2018-12-13T07:50:28.787Z,1.38
2018-12-13T07:52:57.580Z,1.37
2018-12-13T07:55:26.515Z,1.35
2018-12-13T07:57:55.242Z,1.36
2018-12-13T08:00:24.088Z,1.39
2018-12-13T08:02:52.948Z,1.42
2018-12-13T08:05:21.720Z,1.47
2018-12-13T08:07:50.679Z,1.51
2018-12-13T08:10:19.492Z,1.53
2018-12-13T08:12:48.303Z,1.53
2018-12-13T08:15:17.457Z,1.54
2018-12-13T08:17:46.682Z,1.56
2018-12-13T08:20:18.473Z,1.54
2018-12-13T08:22:47.324Z,1.51
2018-12-13T08:25:16.358Z,1.50
2018-12-13T08:27:45.248Z,1.53
2018-12-13T08:30:14.071Z,1.57
2018-12-13T08:32:42.928Z,1.61
2018-12-13T08:35:11.850Z,1.63
2018-12-13T08:37:40.788Z,1.62
2018-12-13T08:40:09.657Z,1.62
2018-12-13T08:42:38.519Z,1.64
2018-12-13T08:45:07.519Z,1.66
2018-12-13T08:47:36.347Z,1.63
2018-12-13T08:50:05.504Z,1.61
2018-12-13T08:52:34.995Z,1.59
2018-12-13T08:55:05.025Z,1.62
2018-12-13T08:57:34.947Z,1.62
2018-12-13T09:00:07.019Z,1.64
2018-12-13T09:02:37.389Z,1.68
2018-12-13T09:05:07.078Z,1.73
2018-12-13T09:07:36.010Z,1.75
2018-12-13T09:10:05.411Z,1.78
2018-12-13T09:12:34.264Z,1.80
2018-12-13T09:15:03.142Z,1.85
2018-12-13T09:17:31.990Z,1.88
2018-12-13T09:20:00.915Z,1.90
2018-12-13T09:22:31.378Z,1.89
2018-12-13T09:25:00.126Z,1.95
2018-12-13T09:27:28.922Z,2.02
2018-12-13T09:29:57.697Z,2.06
2018-12-13T09:32:26.424Z,2.10
2018-12-13T09:34:55.416Z,2.17
2018-12-13T09:37:24.413Z,2.25
2018-12-13T09:39:53.129Z,2.30
2018-12-13T09:42:22.170Z,2.32
2018-12-13T09:44:51.395Z,2.36
2018-12-13T09:47:20.429Z,2.37
2018-12-13T09:49:49.373Z,2.39
2018-12-13T09:52:18.169Z,2.49
2018-12-13T09:54:47.050Z,2.53
2018-12-13T09:57:22.423Z,2.56
2018-12-13T09:59:51.172Z,2.60
2018-12-13T10:02:19.898Z,2.63
2018-12-13T10:04:48.668Z,2.71
2018-12-13T10:07:17.476Z,2.74
2018-12-13T10:09:46.242Z,2.81
2018-12-13T10:12:15.133Z,2.85
2018-12-13T10:14:43.889Z,2.89
2018-12-13T10:17:12.685Z,2.93
2018-12-13T10:19:41.400Z,2.99
2018-12-13T10:22:11.885Z,3.05
2018-12-13T10:24:41.162Z,3.05
2018-12-13T10:27:09.982Z,3.12
2018-12-13T10:29:40.954Z,3.17
2018-12-13T10:32:09.991Z,3.21
2018-12-13T10:34:38.923Z,3.30
2018-12-13T10:37:07.665Z,3.33
2018-12-13T10:39:36.452Z,3.38
2018-12-13T10:42:05.302Z,3.41
2018-12-13T10:44:36.182Z,3.49
2018-12-13T10:47:05.540Z,3.52
2018-12-13T10:49:34.763Z,3.55
2018-12-13T10:52:03.644Z,3.58
2018-12-13T10:54:32.466Z,3.64
2018-12-13T10:57:01.263Z,3.70
2018-12-13T10:59:30.197Z,3.77
2018-12-13T11:02:02.331Z,3.85
2018-12-13T11:04:31.163Z,3.86
2018-12-13T11:07:00.234Z,3.91
2018-12-13T11:09:30.083Z,3.94
2018-12-13T11:12:00.747Z,3.94
2018-12-13T11:14:29.617Z,3.96
2018-12-13T11:16:58.344Z,4.01
2018-12-13T11:19:27.211Z,4.03
2018-12-13T11:21:56.199Z,4.05
2018-12-13T11:24:24.920Z,4.02
2018-12-13T11:26:57.046Z,4.07
2018-12-13T11:29:37.052Z,4.11
2018-12-13T11:32:05.905Z,4.14
2018-12-13T11:34:34.627Z,4.20
2018-12-13T11:37:03.416Z,4.23
2018-12-13T11:39:32.370Z,4.26
2018-12-13T11:42:01.107Z,4.24
2018-12-13T11:44:30.031Z,4.29
2018-12-13T11:46:58.747Z,4.35
2018-12-13T11:49:27.794Z,4.41
2018-12-13T11:51:56.771Z,4.40
2018-12-13T11:54:40.169Z,4.44
2018-12-13T11:57:09.191Z,4.41
2018-12-13T11:59:38.046Z,4.39
2018-12-13T12:02:07.282Z,4.39
2018-12-13T12:04:36.006Z,4.37
2018-12-13T12:07:04.938Z,4.39
2018-12-13T12:09:33.867Z,4.37
2018-12-13T12:12:02.737Z,4.41
2018-12-13T12:14:31.827Z,4.47
2018-12-13T12:17:01.567Z,4.50
2018-12-13T12:19:30.744Z,4.50
2018-12-13T12:21:59.655Z,4.47
2018-12-13T12:24:28.419Z,4.52
2018-12-13T12:26:57.183Z,4.56
2018-12-13T12:29:26.031Z,4.62
2018-12-13T12:31:54.834Z,4.63
2018-12-13T12:34:23.786Z,4.64
2018-12-13T12:36:52.624Z,4.63
2018-12-13T12:39:21.367Z,4.62
2018-12-13T12:41:50.110Z,4.64
2018-12-13T12:44:18.854Z,4.69
2018-12-13T12:46:47.891Z,4.72
2018-12-13T12:49:18.555Z,4.72
2018-12-13T12:51:47.563Z,4.73
2018-12-13T12:54:16.336Z,4.73
2018-12-13T12:56:45.103Z,4.75
2018-12-13T12:59:14.013Z,4.77
2018-12-13T13:01:42.795Z,4.79
2018-12-13T13:04:11.683Z,4.72
2018-12-13T13:06:40.662Z,4.71
2018-12-13T13:09:09.515Z,4.69
2018-12-13T13:11:38.729Z,4.71
2018-12-13T13:14:07.608Z,4.68
2018-12-13T13:16:36.400Z,4.62
2018-12-13T13:19:05.342Z,4.66
2018-12-13T13:21:34.261Z,4.72
2018-12-13T13:24:03.047Z,4.71
2018-12-13T13:26:31.758Z,4.73
2018-12-13T13:29:00.691Z,4.75
2018-12-13T13:31:29.624Z,4.76
2018-12-13T13:33:58.342Z,4.79
2018-12-13T13:36:27.131Z,4.83
2018-12-13T13:38:55.967Z,4.83
2018-12-13T13:41:24.855Z,4.83
2018-12-13T13:43:53.706Z,4.83
2018-12-13T13:46:22.619Z,4.84
2018-12-13T13:48:52.606Z,4.85
2018-12-13T13:51:21.351Z,4.86
2018-12-13T13:53:50.093Z,4.88
2018-12-13T13:56:18.823Z,4.85
2018-12-13T13:58:47.671Z,4.83
2018-12-13T14:01:17.503Z,4.82
2018-12-13T14:03:46.350Z,4.87
2018-12-13T14:06:15.142Z,4.85
2018-12-13T14:08:44.251Z,4.82
2018-12-13T14:11:13.258Z,4.85
2018-12-13T14:13:42.078Z,4.78
2018-12-13T14:16:10.873Z,4.76
2018-12-13T14:18:40.370Z,4.75
2018-12-13T14:21:09.283Z,4.78
2018-12-13T14:23:38.126Z,4.77
2018-12-13T14:26:07.423Z,4.76
2018-12-13T14:28:36.198Z,4.80
2018-12-13T14:31:05.115Z,4.79
2018-12-13T14:33:33.918Z,4.74
2018-12-13T14:36:02.859Z,4.72
2018-12-13T14:38:31.666Z,4.69
2018-12-13T14:41:02.342Z,4.72
2018-12-13T14:43:33.309Z,4.67
2018-12-13T14:46:02.198Z,4.66
2018-12-13T14:48:31.115Z,4.62
2018-12-13T14:51:00.106Z,4.57
2018-12-13T14:53:29.194Z,4.53
2018-12-13T14:55:58.199Z,4.51
2018-12-13T14:58:27.100Z,4.54
2018-12-13T15:00:56.078Z,4.57
2018-12-13T15:03:24.855Z,4.52
2018-12-13T15:05:53.627Z,4.51
2018-12-13T15:08:23.285Z,4.55
2018-12-13T15:10:52.115Z,4.54
2018-12-13T15:13:20.921Z,4.56
2018-12-13T15:15:49.795Z,4.56
2018-12-13T15:18:18.754Z,4.55
2018-12-13T15:20:48.134Z,4.57
2018-12-13T15:23:16.869Z,4.59
2018-12-13T15:25:45.707Z,4.59
2018-12-13T15:28:14.879Z,4.62
2018-12-13T15:30:43.701Z,4.66
2018-12-13T15:33:12.770Z,4.57
2018-12-13T15:35:41.491Z,4.55
2018-12-13T15:38:10.231Z,4.53
2018-12-13T15:40:39.058Z,4.48
2018-12-13T15:43:08.148Z,4.49
2018-12-13T15:45:37.222Z,4.43
2018-12-13T15:48:05.966Z,4.41
2018-12-13T15:50:34.723Z,4.36
2018-12-13T15:53:03.524Z,4.35
2018-12-13T15:55:32.609Z,4.35
2018-12-13T15:58:01.367Z,4.35
2018-12-13T16:00:30.150Z,4.30
2018-12-13T16:02:58.994Z,4.28
2018-12-13T16:05:28.116Z,4.27
2018-12-13T16:07:57.149Z,4.25
2018-12-13T16:10:25.930Z,4.28
2018-12-13T16:12:54.797Z,4.30
2018-12-13T16:15:23.696Z,4.30
2018-12-13T16:17:52.504Z,4.31
2018-12-13T16:20:21.234Z,4.27
2018-12-13T16:22:50.058Z,4.25
2018-12-13T16:25:19.190Z,4.27
2018-12-13T16:27:48.046Z,4.32
2018-12-13T16:30:17.162Z,4.32
2018-12-13T16:32:45.963Z,4.30
2018-12-13T16:35:14.778Z,4.23
2018-12-13T16:37:43.715Z,4.24
2018-12-13T16:40:12.586Z,4.28
2018-12-13T16:42:41.339Z,4.28
2018-12-13T16:45:10.130Z,4.26
2018-12-13T16:47:39.683Z,4.22
2018-12-13T16:50:08.589Z,4.19
2018-12-13T16:52:37.724Z,4.19
2018-12-13T16:55:06.795Z,4.19
2018-12-13T16:57:35.794Z,4.24
2018-12-13T17:00:07.020Z,4.23
2018-12-13T17:02:36.175Z,4.25
2018-12-13T17:05:05.307Z,4.24
2018-12-13T17:07:34.128Z,4.21
2018-12-13T17:10:02.919Z,4.25
2018-12-13T17:12:31.895Z,4.21
2018-12-13T17:15:00.794Z,4.24
2018-12-13T17:17:30.430Z,4.25
2018-12-13T17:19:59.331Z,4.26
2018-12-13T17:22:28.115Z,4.27
2018-12-13T17:24:57.082Z,4.24
2018-12-13T17:27:25.946Z,4.27
2018-12-13T17:29:54.814Z,4.29
2018-12-13T17:32:23.598Z,4.32
2018-12-13T17:34:52.322Z,4.34
2018-12-13T17:37:21.073Z,4.34
2018-12-13T17:39:49.973Z,4.31
2018-12-13T17:42:18.772Z,4.24
2018-12-13T17:44:47.524Z,4.22
2018-12-13T17:47:16.942Z,4.23
2018-12-13T17:49:45.843Z,4.21
2018-12-13T17:52:14.652Z,4.18
2018-12-13T17:54:43.411Z,4.16
2018-12-13T17:57:12.195Z,4.11
2018-12-13T17:59:41.051Z,4.07
2018-12-13T18:02:10.054Z,4.09
2018-12-13T18:04:38.860Z,4.10
2018-12-13T18:07:07.745Z,4.08
2018-12-13T18:09:36.541Z,4.10
2018-12-13T18:12:05.423Z,4.10
2018-12-13T18:14:34.210Z,4.08
2018-12-13T18:17:02.999Z,4.08
2018-12-13T18:19:31.931Z,4.07
2018-12-13T18:22:00.640Z,4.09
2018-12-13T18:24:37.840Z,4.08
2018-12-13T18:27:06.961Z,4.06
2018-12-13T18:29:36.195Z,4.04
2018-12-13T18:32:27.247Z,4.00
2018-12-13T18:34:56.130Z,4.00
2018-12-13T18:37:26.140Z,4.02
2018-12-13T18:39:54.868Z,4.04
2018-12-13T18:42:23.801Z,4.04
2018-12-13T18:44:52.754Z,4.02
2018-12-13T18:47:21.811Z,4.00
2018-12-13T18:49:50.718Z,3.98
2018-12-13T18:52:19.848Z,3.96
2018-12-13T18:54:48.692Z,3.97
2018-12-13T18:57:18.985Z,3.96
2018-12-13T18:59:48.822Z,3.93
2018-12-13T19:02:17.811Z,3.92
2018-12-13T19:04:46.801Z,3.95
2018-12-13T19:07:15.890Z,4.02
2018-12-13T19:09:44.931Z,3.98
2018-12-13T19:12:13.775Z,4.03
2018-12-13T19:14:42.846Z,4.03
2018-12-13T19:17:11.834Z,3.97
2018-12-13T19:19:40.772Z,3.96
2018-12-13T19:22:09.807Z,3.97
2018-12-13T19:24:38.824Z,3.97
2018-12-13T19:27:07.735Z,3.94
2018-12-13T19:29:36.802Z,3.94
2018-12-13T19:32:05.841Z,3.95
2018-12-13T19:34:34.948Z,3.97
2018-12-13T19:37:03.842Z,3.98
2018-12-13T19:39:32.659Z,4.01
2018-12-13T19:42:02.070Z,4.02
2018-12-13T19:44:30.978Z,4.03
2018-12-13T19:47:00.063Z,3.97
2018-12-13T19:49:29.048Z,3.96
2018-12-13T19:51:59.194Z,3.94
2018-12-13T19:54:28.009Z,3.96
2018-12-13T19:56:57.175Z,3.94
2018-12-13T19:59:25.890Z,3.91
2018-12-13T20:01:54.711Z,3.90
2018-12-13T20:04:23.526Z,3.94
2018-12-13T20:06:52.611Z,3.90
2018-12-13T20:09:21.367Z,3.91
2018-12-13T20:11:51.830Z,3.91
2018-12-13T20:14:22.683Z,3.89
2018-12-13T20:16:51.565Z,3.93
2018-12-13T20:19:20.565Z,3.94
2018-12-13T20:21:49.576Z,3.94
2018-12-13T20:24:18.543Z,3.95
2018-12-13T20:26:47.543Z,3.99
2018-12-13T20:29:17.209Z,4.03
2018-12-13T20:31:46.838Z,4.03
2018-12-13T20:34:15.820Z,4.00
2018-12-13T20:36:45.047Z,3.98
2018-12-13T20:39:14.189Z,3.99
2018-12-13T20:41:43.814Z,3.96
2018-12-13T20:44:12.656Z,3.94
2018-12-13T20:46:41.935Z,3.92
2018-12-13T20:49:10.955Z,3.82
2018-12-13T20:51:39.927Z,3.83
2018-12-13T20:54:09.012Z,3.84
2018-12-13T20:56:38.548Z,3.81
2018-12-13T20:59:08.139Z,3.77
2018-12-13T21:01:37.898Z,3.77
2018-12-13T21:04:06.807Z,3.76
2018-12-13T21:06:35.745Z,3.73
2018-12-13T21:09:07.203Z,3.71
2018-12-13T21:11:36.852Z,3.68
2018-12-13T21:14:05.847Z,3.70
2018-12-13T21:16:34.752Z,3.70
2018-12-13T21:19:03.872Z,3.66
2018-12-13T21:21:32.745Z,3.64
2018-12-13T21:24:01.470Z,3.65
2018-12-13T21:26:30.587Z,3.68
2018-12-13T21:28:59.414Z,3.70
2018-12-13T21:31:46.950Z,3.70
2018-12-13T21:34:15.908Z,3.70
2018-12-13T21:36:44.882Z,3.71
2018-12-13T21:39:13.812Z,3.69
2018-12-13T21:41:42.538Z,3.69
2018-12-13T21:44:11.562Z,3.71
2018-12-13T21:46:47.127Z,3.72
2018-12-13T21:49:15.848Z,3.76
2018-12-13T21:51:44.717Z,3.76
2018-12-13T21:54:14.480Z,3.78
2018-12-13T21:56:43.785Z,3.75
2018-12-13T21:59:12.902Z,3.72
2018-12-13T22:01:41.667Z,3.74
2018-12-13T22:04:10.529Z,3.78
2018-12-13T22:06:39.575Z,3.80
2018-12-13T22:09:08.718Z,3.83
2018-12-13T22:11:37.486Z,3.84
2018-12-13T22:14:06.383Z,3.81
2018-12-13T22:16:35.104Z,3.77
2018-12-13T22:19:04.287Z,3.73
2018-12-13T22:21:33.077Z,3.70
2018-12-13T22:24:02.043Z,3.67
2018-12-13T22:26:31.210Z,3.66
2018-12-13T22:29:00.133Z,3.68
2018-12-13T22:31:29.094Z,3.67
2018-12-13T22:33:58.483Z,3.63
2018-12-13T22:36:27.537Z,3.65
2018-12-13T22:38:56.470Z,3.63
2018-12-13T22:41:26.454Z,3.59
2018-12-13T22:43:55.666Z,3.60
2018-12-13T22:46:24.693Z,3.64
2018-12-13T22:48:54.498Z,3.63
2018-12-13T22:51:23.662Z,3.60
2018-12-13T22:53:52.576Z,3.62
2018-12-13T22:56:21.551Z,3.60
2018-12-13T22:58:50.461Z,3.60
2018-12-13T23:01:19.566Z,3.62
2018-12-13T23:03:49.674Z,3.61
2018-12-13T23:06:18.530Z,3.59
2018-12-13T23:08:48.246Z,3.57
2018-12-13T23:11:17.498Z,3.57
2018-12-13T23:13:46.268Z,3.57
2018-12-13T23:16:16.003Z,3.55
2018-12-13T23:18:44.930Z,3.51
2018-12-13T23:21:13.847Z,3.56
2018-12-13T23:23:43.083Z,3.59
2018-12-13T23:26:11.847Z,3.61
2018-12-13T23:28:40.652Z,3.64
2018-12-13T23:31:09.598Z,3.66
2018-12-13T23:33:38.505Z,3.66
2018-12-13T23:36:07.951Z,3.58
2018-12-13T23:38:36.894Z,3.54
2018-12-13T23:41:05.684Z,3.54
2018-12-13T23:43:34.932Z,3.57
2018-12-13T23:46:03.935Z,3.62
2018-12-13T23:48:32.681Z,3.63
2018-12-13T23:51:01.482Z,3.63
2018-12-13T23:53:30.391Z,3.61
2018-12-13T23:55:59.603Z,3.64
2018-12-13T23:58:28.603Z,3.67
